sensor_id;sensor_type;location;lat;lon;timestamp;pressure;altitude;pressure_sealevel;temperature;humidity
24996;BME280;13016;52.162;21.034;2024-03-17T00:04:24;100404.96;;;14.04;43.47
24996;BME280;13016;52.162;21.034;2024-03-17T00:10:24;100411.20;;;14.01;43.29
24996;BME280;13016;52.162;21.034;2024-03-17T00:16:24;100421.27;;;13.80;43.72
24996;BME280;13016;52.162;21.034;2024-03-17T00:22:24;100430.58;;;14.05;43.59
24996;BME280;13016;52.162;21.034;2024-03-17T00:28:25;100445.65;;;14.17;42.93
24996;BME280;13016;52.162;21.034;2024-03-17T00:34:25;100444.60;;;13.79;40.78
24996;BME280;13016;52.162;21.034;2024-03-17T00:40:25;100442.73;;;13.80;40.26
24996;BME280;13016;52.162;21.034;2024-03-17T00:46:25;100437.52;;;13.91;39.70
24996;BME280;13016;52.162;21.034;2024-03-17T00:52:25;100434.13;;;13.64;39.16
24996;BME280;13016;52.162;21.034;2024-03-17T00:58:25;100440.18;;;13.76;38.76
24996;BME280;13016;52.162;21.034;2024-03-17T01:04:25;100447.45;;;13.71;38.99
24996;BME280;13016;52.162;21.034;2024-03-17T01:10:26;100447.19;;;13.72;39.18
24996;BME280;13016;52.162;21.034;2024-03-17T01:16:26;100453.17;;;13.68;39.44
24996;BME280;13016;52.162;21.034;2024-03-17T01:22:26;100453.25;;;13.35;39.91
24996;BME280;13016;52.162;21.034;2024-03-17T01:28:26;100445.05;;;13.04;39.91
24996;BME280;13016;52.162;21.034;2024-03-17T01:34:26;100450.46;;;12.89;39.93
24996;BME280;13016;52.162;21.034;2024-03-17T01:40:26;100460.39;;;12.74;40.16
24996;BME280;13016;52.162;21.034;2024-03-17T01:46:26;100461.54;;;12.83;40.56
24996;BME280;13016;52.162;21.034;2024-03-17T01:52:27;100468.45;;;12.83;40.69
24996;BME280;13016;52.162;21.034;2024-03-17T01:58:27;100467.02;;;12.70;40.76
24996;BME280;13016;52.162;21.034;2024-03-17T02:04:30;100477.98;;;12.59;41.18
24996;BME280;13016;52.162;21.034;2024-03-17T02:10:31;100474.25;;;12.42;41.46
24996;BME280;13016;52.162;21.034;2024-03-17T02:16:31;100478.16;;;12.52;41.75
24996;BME280;13016;52.162;21.034;2024-03-17T02:22:31;100482.45;;;12.54;41.62
24996;BME280;13016;52.162;21.034;2024-03-17T02:28:38;100490.06;;;12.41;41.92
24996;BME280;13016;52.162;21.034;2024-03-17T02:34:38;100492.85;;;12.38;41.75
24996;BME280;13016;52.162;21.034;2024-03-17T02:40:38;100498.89;;;12.17;42.16
24996;BME280;13016;52.162;21.034;2024-03-17T02:46:42;100501.08;;;12.13;42.48
24996;BME280;13016;52.162;21.034;2024-03-17T02:52:43;100505.77;;;12.17;42.48
24996;BME280;13016;52.162;21.034;2024-03-17T02:58:46;100513.23;;;12.30;42.21
24996;BME280;13016;52.162;21.034;2024-03-17T03:04:46;100518.59;;;12.24;42.00
24996;BME280;13016;52.162;21.034;2024-03-17T03:10:47;100513.43;;;12.03;42.34
24996;BME280;13016;52.162;21.034;2024-03-17T03:16:47;100516.13;;;12.05;42.65
24996;BME280;13016;52.162;21.034;2024-03-17T03:22:47;100517.42;;;12.12;42.75
24996;BME280;13016;52.162;21.034;2024-03-17T03:28:47;100523.22;;;12.16;42.92
24996;BME280;13016;52.162;21.034;2024-03-17T03:34:47;100517.69;;;12.19;43.18
24996;BME280;13016;52.162;21.034;2024-03-17T03:40:48;100509.34;;;12.17;43.40
24996;BME280;13016;52.162;21.034;2024-03-17T03:46:48;100507.09;;;12.24;43.63
24996;BME280;13016;52.162;21.034;2024-03-17T03:52:48;100507.89;;;12.23;43.88
24996;BME280;13016;52.162;21.034;2024-03-17T03:58:49;100509.46;;;12.28;44.09
24996;BME280;13016;52.162;21.034;2024-03-17T04:04:49;100514.75;;;12.26;44.47
24996;BME280;13016;52.162;21.034;2024-03-17T04:10:49;100515.86;;;12.23;44.58
24996;BME280;13016;52.162;21.034;2024-03-17T04:16:49;100523.62;;;12.20;44.37
24996;BME280;13016;52.162;21.034;2024-03-17T04:22:49;100514.85;;;12.08;43.74
24996;BME280;13016;52.162;21.034;2024-03-17T04:28:49;100511.55;;;11.99;42.96
24996;BME280;13016;52.162;21.034;2024-03-17T04:34:49;100512.19;;;12.00;42.22
24996;BME280;13016;52.162;21.034;2024-03-17T04:40:50;100513.88;;;12.05;41.82
24996;BME280;13016;52.162;21.034;2024-03-17T04:46:50;100517.15;;;12.03;41.46
24996;BME280;13016;52.162;21.034;2024-03-17T04:52:50;100524.56;;;12.11;41.53
24996;BME280;13016;52.162;21.034;2024-03-17T04:58:50;100532.94;;;12.10;41.54
24996;BME280;13016;52.162;21.034;2024-03-17T05:04:50;100529.02;;;12.13;41.58
24996;BME280;13016;52.162;21.034;2024-03-17T05:10:55;100529.81;;;12.09;41.91
24996;BME280;13016;52.162;21.034;2024-03-17T05:16:55;100526.58;;;12.10;42.45
24996;BME280;13016;52.162;21.034;2024-03-17T05:22:55;100524.99;;;12.05;42.88
24996;BME280;13016;52.162;21.034;2024-03-17T05:28:55;100529.21;;;12.05;43.49
24996;BME280;13016;52.162;21.034;2024-03-17T05:34:55;100533.19;;;11.90;44.32
24996;BME280;13016;52.162;21.034;2024-03-17T05:41:00;100531.56;;;11.85;45.04
24996;BME280;13016;52.162;21.034;2024-03-17T05:47:00;100535.70;;;11.81;45.56
24996;BME280;13016;52.162;21.034;2024-03-17T05:53:00;100538.14;;;11.74;45.71
24996;BME280;13016;52.162;21.034;2024-03-17T05:59:00;100541.90;;;11.73;45.58
24996;BME280;13016;52.162;21.034;2024-03-17T06:05:00;100543.42;;;11.85;44.82
24996;BME280;13016;52.162;21.034;2024-03-17T06:11:01;100547.98;;;11.99;44.11
24996;BME280;13016;52.162;21.034;2024-03-17T06:17:01;100547.57;;;12.08;43.49
24996;BME280;13016;52.162;21.034;2024-03-17T06:30:13;100548.21;;;12.76;42.21
24996;BME280;13016;52.162;21.034;2024-03-17T06:36:13;100548.89;;;13.05;41.13
24996;BME280;13016;52.162;21.034;2024-03-17T06:42:13;100552.23;;;13.43;40.03
24996;BME280;13016;52.162;21.034;2024-03-17T06:48:13;100552.83;;;13.70;38.83
24996;BME280;13016;52.162;21.034;2024-03-17T06:54:13;100552.38;;;13.69;38.07
24996;BME280;13016;52.162;21.034;2024-03-17T07:00:16;100549.13;;;13.80;37.98
24996;BME280;13016;52.162;21.034;2024-03-17T07:06:16;100557.67;;;14.01;37.38
24996;BME280;13016;52.162;21.034;2024-03-17T07:12:16;100557.77;;;14.15;37.22
24996;BME280;13016;52.162;21.034;2024-03-17T07:18:17;100562.52;;;14.08;37.67
24996;BME280;13016;52.162;21.034;2024-03-17T07:30:36;100577.01;;;13.82;37.99
24996;BME280;13016;52.162;21.034;2024-03-17T07:36:36;100570.96;;;13.49;38.68
24996;BME280;13016;52.162;21.034;2024-03-17T07:42:36;100572.98;;;13.66;38.73
24996;BME280;13016;52.162;21.034;2024-03-17T07:48:36;100576.05;;;13.55;38.58
24996;BME280;13016;52.162;21.034;2024-03-17T07:54:37;100575.81;;;13.53;38.89
24996;BME280;13016;52.162;21.034;2024-03-17T08:00:37;100575.17;;;13.65;38.60
24996;BME280;13016;52.162;21.034;2024-03-17T08:06:38;100575.77;;;13.82;38.68
24996;BME280;13016;52.162;21.034;2024-03-17T08:12:38;100578.11;;;13.73;38.74
24996;BME280;13016;52.162;21.034;2024-03-17T08:18:39;100574.95;;;13.60;39.26
24996;BME280;13016;52.162;21.034;2024-03-17T08:24:39;100570.93;;;13.72;39.61
24996;BME280;13016;52.162;21.034;2024-03-17T08:30:39;100571.06;;;13.85;39.36
24996;BME280;13016;52.162;21.034;2024-03-17T08:36:39;100571.61;;;14.12;39.15
24996;BME280;13016;52.162;21.034;2024-03-17T08:42:39;100573.87;;;14.27;38.47
24996;BME280;13016;52.162;21.034;2024-03-17T08:48:40;100575.10;;;14.20;38.69
24996;BME280;13016;52.162;21.034;2024-03-17T08:54:41;100581.12;;;14.15;38.62
24996;BME280;13016;52.162;21.034;2024-03-17T09:00:41;100581.30;;;13.91;39.09
24996;BME280;13016;52.162;21.034;2024-03-17T09:06:41;100575.42;;;13.79;39.46
24996;BME280;13016;52.162;21.034;2024-03-17T09:12:41;100575.52;;;13.97;39.60
24996;BME280;13016;52.162;21.034;2024-03-17T09:18:41;100582.27;;;14.21;39.05
24996;BME280;13016;52.162;21.034;2024-03-17T09:24:42;100576.18;;;14.03;38.94
24996;BME280;13016;52.162;21.034;2024-03-17T09:30:46;100588.02;;;13.86;39.46
24996;BME280;13016;52.162;21.034;2024-03-17T09:36:47;100587.54;;;13.43;42.55
24996;BME280;13016;52.162;21.034;2024-03-17T09:42:47;100585.30;;;13.40;43.62
24996;BME280;13016;52.162;21.034;2024-03-17T09:48:47;100587.36;;;13.25;44.42
24996;BME280;13016;52.162;21.034;2024-03-17T09:55:01;100582.09;;;13.52;43.74
24996;BME280;13016;52.162;21.034;2024-03-17T10:01:01;100586.88;;;13.67;42.50
24996;BME280;13016;52.162;21.034;2024-03-17T10:07:01;100590.84;;;13.79;41.96
24996;BME280;13016;52.162;21.034;2024-03-17T10:13:01;100596.45;;;13.87;41.45
24996;BME280;13016;52.162;21.034;2024-03-17T10:19:12;100595.66;;;14.01;40.13
24996;BME280;13016;52.162;21.034;2024-03-17T10:25:12;100597.72;;;14.23;39.89
24996;BME280;13016;52.162;21.034;2024-03-17T10:31:12;100597.41;;;14.26;39.64
24996;BME280;13016;52.162;21.034;2024-03-17T10:43:13;100594.95;;;14.03;40.44
24996;BME280;13016;52.162;21.034;2024-03-17T10:49:13;100597.54;;;13.69;41.23
24996;BME280;13016;52.162;21.034;2024-03-17T10:55:22;100594.16;;;13.72;41.22
24996;BME280;13016;52.162;21.034;2024-03-17T11:01:23;100591.16;;;13.77;40.89
24996;BME280;13016;52.162;21.034;2024-03-17T11:07:23;100584.88;;;13.83;40.70
24996;BME280;13016;52.162;21.034;2024-03-17T11:13:25;100585.64;;;13.77;40.32
24996;BME280;13016;52.162;21.034;2024-03-17T11:19:26;100585.97;;;13.98;40.20
24996;BME280;13016;52.162;21.034;2024-03-17T11:37:42;100580.67;;;13.90;38.97
24996;BME280;13016;52.162;21.034;2024-03-17T11:43:43;100579.19;;;14.01;39.09
24996;BME280;13016;52.162;21.034;2024-03-17T11:49:43;100577.77;;;13.98;39.26
24996;BME280;13016;52.162;21.034;2024-03-17T11:55:48;100578.33;;;13.63;38.44
24996;BME280;13016;52.162;21.034;2024-03-17T12:01:53;100582.38;;;13.46;38.26
24996;BME280;13016;52.162;21.034;2024-03-17T12:07:53;100595.09;;;13.23;38.77
24996;BME280;13016;52.162;21.034;2024-03-17T12:13:53;100590.98;;;12.87;39.20
24996;BME280;13016;52.162;21.034;2024-03-17T12:19:54;100587.89;;;12.88;39.04
24996;BME280;13016;52.162;21.034;2024-03-17T12:25:54;100593.69;;;12.92;38.99
24996;BME280;13016;52.162;21.034;2024-03-17T12:31:54;100598.04;;;12.88;39.30
24996;BME280;13016;52.162;21.034;2024-03-17T12:37:55;100592.82;;;12.87;39.71
24996;BME280;13016;52.162;21.034;2024-03-17T12:43:55;100588.98;;;13.09;39.59
24996;BME280;13016;52.162;21.034;2024-03-17T12:49:56;100591.38;;;13.18;39.45
24996;BME280;13016;52.162;21.034;2024-03-17T12:55:56;100591.38;;;13.31;39.43
24996;BME280;13016;52.162;21.034;2024-03-17T13:02:00;100586.52;;;13.25;39.22
24996;BME280;13016;52.162;21.034;2024-03-17T13:08:08;100588.38;;;13.51;39.49
24996;BME280;13016;52.162;21.034;2024-03-17T13:14:11;100588.48;;;13.52;39.65
24996;BME280;13016;52.162;21.034;2024-03-17T13:20:15;100585.80;;;13.47;40.26
24996;BME280;13016;52.162;21.034;2024-03-17T13:26:15;100584.54;;;13.33;39.40
24996;BME280;13016;52.162;21.034;2024-03-17T13:32:17;100581.41;;;13.69;39.05
24996;BME280;13016;52.162;21.034;2024-03-17T13:38:18;100585.25;;;13.85;38.28
24996;BME280;13016;52.162;21.034;2024-03-17T13:44:18;100581.48;;;13.44;38.57
24996;BME280;13016;52.162;21.034;2024-03-17T13:50:18;100583.23;;;13.23;39.00
24996;BME280;13016;52.162;21.034;2024-03-17T13:56:18;100592.30;;;13.08;39.47
24996;BME280;13016;52.162;21.034;2024-03-17T14:02:18;100602.11;;;13.09;39.41
24996;BME280;13016;52.162;21.034;2024-03-17T14:08:19;100599.88;;;12.82;40.21
24996;BME280;13016;52.162;21.034;2024-03-17T14:14:19;100601.79;;;12.60;40.71
24996;BME280;13016;52.162;21.034;2024-03-17T14:20:19;100610.92;;;12.56;41.28
24996;BME280;13016;52.162;21.034;2024-03-17T14:26:19;100617.79;;;12.02;43.79
24996;BME280;13016;52.162;21.034;2024-03-17T14:32:19;100623.90;;;11.87;45.19
24996;BME280;13016;52.162;21.034;2024-03-17T14:38:22;100623.17;;;11.79;46.22
24996;BME280;13016;52.162;21.034;2024-03-17T14:44:23;100619.71;;;11.54;47.40
24996;BME280;13016;52.162;21.034;2024-03-17T14:50:23;100621.14;;;11.42;47.62
24996;BME280;13016;52.162;21.034;2024-03-17T14:56:23;100625.39;;;11.39;48.11
24996;BME280;13016;52.162;21.034;2024-03-17T15:02:24;100632.65;;;11.21;49.12
24996;BME280;13016;52.162;21.034;2024-03-17T15:08:24;100630.16;;;11.22;49.51
24996;BME280;13016;52.162;21.034;2024-03-17T15:14:24;100626.32;;;11.36;49.48
24996;BME280;13016;52.162;21.034;2024-03-17T15:20:24;100631.85;;;11.32;49.92
24996;BME280;13016;52.162;21.034;2024-03-17T15:26:24;100637.60;;;11.21;50.14
24996;BME280;13016;52.162;21.034;2024-03-17T15:32:25;100640.83;;;10.88;50.22
24996;BME280;13016;52.162;21.034;2024-03-17T15:38:25;100649.66;;;10.76;51.03
24996;BME280;13016;52.162;21.034;2024-03-17T15:44:25;100650.42;;;10.78;51.10
24996;BME280;13016;52.162;21.034;2024-03-17T15:50:25;100659.01;;;10.88;51.04
24996;BME280;13016;52.162;21.034;2024-03-17T15:56:25;100669.92;;;10.85;50.95
24996;BME280;13016;52.162;21.034;2024-03-17T16:02:26;100672.69;;;10.59;51.41
24996;BME280;13016;52.162;21.034;2024-03-17T16:08:26;100677.17;;;10.29;51.30
24996;BME280;13016;52.162;21.034;2024-03-17T16:14:26;100678.44;;;10.22;51.18
24996;BME280;13016;52.162;21.034;2024-03-17T16:26:45;100692.23;;;10.08;50.88
24996;BME280;13016;52.162;21.034;2024-03-17T16:32:45;100699.09;;;10.11;50.63
24996;BME280;13016;52.162;21.034;2024-03-17T16:38:45;100704.61;;;10.07;50.58
24996;BME280;13016;52.162;21.034;2024-03-17T16:44:50;100704.87;;;10.06;50.56
24996;BME280;13016;52.162;21.034;2024-03-17T16:50:52;100714.27;;;10.01;50.39
24996;BME280;13016;52.162;21.034;2024-03-17T16:56:53;100725.02;;;9.88;50.55
24996;BME280;13016;52.162;21.034;2024-03-17T17:02:53;100725.92;;;9.84;51.17
24996;BME280;13016;52.162;21.034;2024-03-17T17:08:53;100730.67;;;9.70;51.18
24996;BME280;13016;52.162;21.034;2024-03-17T17:14:53;100731.92;;;9.70;51.37
24996;BME280;13016;52.162;21.034;2024-03-17T17:21:02;100730.93;;;9.66;50.93
24996;BME280;13016;52.162;21.034;2024-03-17T17:27:03;100738.84;;;9.69;50.31
24996;BME280;13016;52.162;21.034;2024-03-17T17:33:04;100736.57;;;9.55;50.03
24996;BME280;13016;52.162;21.034;2024-03-17T17:39:04;100738.74;;;9.68;49.89
24996;BME280;13016;52.162;21.034;2024-03-17T17:45:08;100739.52;;;9.59;49.72
24996;BME280;13016;52.162;21.034;2024-03-17T17:51:09;100739.55;;;9.79;49.42
24996;BME280;13016;52.162;21.034;2024-03-17T17:57:11;100742.86;;;9.67;48.97
24996;BME280;13016;52.162;21.034;2024-03-17T18:03:19;100738.67;;;9.69;48.89
24996;BME280;13016;52.162;21.034;2024-03-17T18:09:19;100745.39;;;9.62;48.55
24996;BME280;13016;52.162;21.034;2024-03-17T18:15:19;100742.02;;;9.52;48.24
24996;BME280;13016;52.162;21.034;2024-03-17T18:21:19;100740.39;;;9.36;48.45
24996;BME280;13016;52.162;21.034;2024-03-17T18:27:20;100747.00;;;9.55;47.88
24996;BME280;13016;52.162;21.034;2024-03-17T18:33:20;100732.97;;;9.43;47.12
24996;BME280;13016;52.162;21.034;2024-03-17T18:39:20;100735.57;;;9.44;47.05
24996;BME280;13016;52.162;21.034;2024-03-17T18:45:21;100743.55;;;9.39;46.88
24996;BME280;13016;52.162;21.034;2024-03-17T18:51:21;100740.48;;;9.41;46.97
24996;BME280;13016;52.162;21.034;2024-03-17T18:57:23;100742.33;;;9.29;46.91
24996;BME280;13016;52.162;21.034;2024-03-17T19:03:24;100741.90;;;9.27;46.94
24996;BME280;13016;52.162;21.034;2024-03-17T19:09:25;100741.16;;;9.38;47.05
24996;BME280;13016;52.162;21.034;2024-03-17T19:15:25;100740.27;;;9.42;46.55
24996;BME280;13016;52.162;21.034;2024-03-17T19:21:27;100737.23;;;9.35;46.55
24996;BME280;13016;52.162;21.034;2024-03-17T19:27:27;100734.91;;;9.43;46.50
24996;BME280;13016;52.162;21.034;2024-03-17T19:33:28;100728.20;;;9.40;45.87
24996;BME280;13016;52.162;21.034;2024-03-17T19:39:28;100726.49;;;9.43;46.11
24996;BME280;13016;52.162;21.034;2024-03-17T19:45:29;100727.44;;;9.38;45.79
24996;BME280;13016;52.162;21.034;2024-03-17T20:04:20;100732.14;;;9.39;45.94
24996;BME280;13016;52.162;21.034;2024-03-17T20:10:20;100728.90;;;9.33;45.99
24996;BME280;13016;52.162;21.034;2024-03-17T20:16:21;100727.14;;;9.19;46.04
24996;BME280;13016;52.162;21.034;2024-03-17T20:22:22;100725.60;;;9.11;45.82
24996;BME280;13016;52.162;21.034;2024-03-17T20:28:25;100720.01;;;9.03;44.96
24996;BME280;13016;52.162;21.034;2024-03-17T20:34:25;100717.38;;;8.99;44.21
24996;BME280;13016;52.162;21.034;2024-03-17T20:40:29;100718.02;;;8.97;43.69
24996;BME280;13016;52.162;21.034;2024-03-17T20:46:29;100716.25;;;8.90;43.67
24996;BME280;13016;52.162;21.034;2024-03-17T20:52:49;100711.84;;;8.98;43.33
24996;BME280;13016;52.162;21.034;2024-03-17T20:59:09;100710.48;;;8.97;43.42
24996;BME280;13016;52.162;21.034;2024-03-17T21:05:11;100701.29;;;9.01;43.85
24996;BME280;13016;52.162;21.034;2024-03-17T21:11:12;100698.73;;;9.07;44.36
24996;BME280;13016;52.162;21.034;2024-03-17T21:17:19;100687.98;;;9.03;44.60
24996;BME280;13016;52.162;21.034;2024-03-17T21:23:26;100679.84;;;9.07;44.84
24996;BME280;13016;52.162;21.034;2024-03-17T21:29:30;100679.14;;;8.94;44.82
24996;BME280;13016;52.162;21.034;2024-03-17T21:35:31;100672.61;;;8.90;44.47
24996;BME280;13016;52.162;21.034;2024-03-17T21:41:40;100670.46;;;8.81;44.37
24996;BME280;13016;52.162;21.034;2024-03-17T21:47:41;100669.63;;;8.69;44.22
24996;BME280;13016;52.162;21.034;2024-03-17T21:53:48;100672.02;;;8.71;44.19
24996;BME280;13016;52.162;21.034;2024-03-17T21:59:52;100676.65;;;8.69;44.37
24996;BME280;13016;52.162;21.034;2024-03-17T22:05:52;100679.35;;;8.57;44.92
24996;BME280;13016;52.162;21.034;2024-03-17T22:12:13;100674.53;;;8.66;44.86
24996;BME280;13016;52.162;21.034;2024-03-17T22:18:18;100672.91;;;8.63;44.95
24996;BME280;13016;52.162;21.034;2024-03-17T22:24:22;100665.28;;;8.61;45.22
24996;BME280;13016;52.162;21.034;2024-03-17T22:30:23;100657.03;;;8.85;45.15
24996;BME280;13016;52.162;21.034;2024-03-17T22:36:27;100649.73;;;8.80;44.58
24996;BME280;13016;52.162;21.034;2024-03-17T22:42:33;100647.00;;;8.79;44.42
24996;BME280;13016;52.162;21.034;2024-03-17T22:48:37;100645.45;;;8.85;44.25
24996;BME280;13016;52.162;21.034;2024-03-17T22:54:41;100650.02;;;8.67;44.11
24996;BME280;13016;52.162;21.034;2024-03-17T23:00:41;100648.65;;;8.63;43.99
24996;BME280;13016;52.162;21.034;2024-03-17T23:06:45;100646.70;;;8.70;44.22
24996;BME280;13016;52.162;21.034;2024-03-17T23:12:54;100638.40;;;8.68;44.22
24996;BME280;13016;52.162;21.034;2024-03-17T23:18:54;100634.83;;;8.65;44.27
24996;BME280;13016;52.162;21.034;2024-03-17T23:24:56;100637.17;;;8.71;44.23
24996;BME280;13016;52.162;21.034;2024-03-17T23:30:57;100633.11;;;8.61;44.44
24996;BME280;13016;52.162;21.034;2024-03-17T23:36:59;100629.77;;;8.57;44.55
24996;BME280;13016;52.162;21.034;2024-03-17T23:43:00;100628.39;;;8.57;44.75
24996;BME280;13016;52.162;21.034;2024-03-17T23:49:01;100628.20;;;8.54;44.95
24996;BME280;13016;52.162;21.034;2024-03-17T23:55:02;100620.83;;;8.46;45.10
